createdAt,value
2023-04-02T00:00:09.799Z,57.27
2023-04-02T00:02:58.877Z,57.35
2023-04-02T00:05:32.016Z,56.26
2023-04-02T00:08:03.436Z,55.85
2023-04-02T00:10:46.980Z,55.65
2023-04-02T00:13:13.940Z,55.54
2023-04-02T00:15:42.636Z,53.27
2023-04-02T00:18:11.661Z,54.01
2023-04-02T00:20:40.937Z,54.58
2023-04-02T00:23:09.960Z,54.42
2023-04-02T00:25:43.162Z,56.01
2023-04-02T00:28:21.589Z,53.46
2023-04-02T00:30:50.497Z,54.50
2023-04-02T00:33:19.392Z,54.79
2023-04-02T00:35:46.690Z,56.43
2023-04-02T00:38:26.372Z,57.98
2023-04-02T00:40:55.619Z,55.57
2023-04-02T00:43:24.982Z,54.58
2023-04-02T00:45:55.389Z,56.36
2023-04-02T00:48:33.941Z,55.41
2023-04-02T00:51:09.986Z,53.89
2023-04-02T00:53:37.034Z,52.78
2023-04-02T00:56:04.129Z,54.81
2023-04-02T00:58:32.926Z,55.43
2023-04-02T01:01:00.326Z,56.63
2023-04-02T01:03:35.351Z,56.52
2023-04-02T01:06:05.376Z,55.63
2023-04-02T01:08:44.574Z,53.94
2023-04-02T01:11:42.493Z,56.61
2023-04-02T01:14:37.166Z,54.78
2023-04-02T01:17:43.033Z,54.09
2023-04-02T01:20:39.269Z,53.34
2023-04-02T01:23:14.476Z,55.57
2023-04-02T01:26:03.609Z,55.01
2023-04-02T01:28:49.016Z,55.53
2023-04-02T01:31:16.683Z,59.14
2023-04-02T01:33:43.865Z,57.58
2023-04-02T01:36:32.266Z,57.41
2023-04-02T01:39:31.545Z,56.65
2023-04-02T01:42:18.870Z,58.94
2023-04-02T01:44:53.833Z,57.87
2023-04-02T01:47:25.717Z,56.08
2023-04-02T01:50:19.347Z,57.48
2023-04-02T01:52:48.779Z,55.84
2023-04-02T01:55:19.676Z,56.69
2023-04-02T01:57:49.526Z,55.91
2023-04-02T02:00:17.108Z,55.74
2023-04-02T02:02:49.179Z,54.28
2023-04-02T02:05:18.318Z,53.11
2023-04-02T02:07:47.325Z,54.62
2023-04-02T02:10:26.973Z,55.00
2023-04-02T02:12:54.218Z,53.38
2023-04-02T02:15:23.003Z,53.75
2023-04-02T02:17:50.422Z,56.87
2023-04-02T02:20:17.757Z,56.29
2023-04-02T02:22:48.809Z,55.62
2023-04-02T02:25:18.570Z,54.57
2023-04-02T02:27:48.810Z,55.10
2023-04-02T02:30:16.597Z,56.30
2023-04-02T02:32:52.656Z,55.56
2023-04-02T02:35:25.980Z,55.64
2023-04-02T02:38:02.576Z,55.25
2023-04-02T02:40:34.497Z,56.09
2023-04-02T02:43:02.869Z,58.39
2023-04-02T02:45:34.140Z,59.52
2023-04-02T02:48:02.742Z,58.14
2023-04-02T02:50:31.782Z,58.53
2023-04-02T02:53:04.708Z,58.31
2023-04-02T02:55:39.552Z,57.24
2023-04-02T02:58:28.261Z,56.13
2023-04-02T03:01:06.781Z,58.71
2023-04-02T03:03:36.432Z,55.86
2023-04-02T03:06:07.570Z,54.93
2023-04-02T03:08:44.178Z,58.93
2023-04-02T03:11:26.630Z,59.96
2023-04-02T03:13:55.247Z,59.15
2023-04-02T03:16:36.228Z,57.30
2023-04-02T03:19:24.896Z,58.42
2023-04-02T03:21:56.064Z,59.38
2023-04-02T03:24:29.808Z,58.16
2023-04-02T03:27:03.821Z,56.26
2023-04-02T03:29:32.300Z,58.66
2023-04-02T03:32:12.489Z,61.54
2023-04-02T03:35:27.656Z,60.51
2023-04-02T03:38:01.024Z,57.89
2023-04-02T03:40:37.570Z,56.46
2023-04-02T03:43:27.534Z,56.03
2023-04-02T03:45:59.592Z,57.35
2023-04-02T03:48:31.091Z,56.05
2023-04-02T03:51:14.887Z,57.50
2023-04-02T03:53:42.148Z,57.02
2023-04-02T03:56:09.571Z,59.52
2023-04-02T03:58:47.695Z,57.96
2023-04-02T04:01:20.847Z,56.83
2023-04-02T04:03:52.475Z,55.98
2023-04-02T04:06:28.905Z,58.03
2023-04-02T04:09:21.566Z,57.75
2023-04-02T04:11:49.948Z,57.41
2023-04-02T04:14:21.521Z,59.10
2023-04-02T04:17:38.566Z,59.61
2023-04-02T04:20:24.490Z,60.05
2023-04-02T04:22:56.210Z,58.62
2023-04-02T04:25:33.944Z,57.74
2023-04-02T04:28:13.743Z,58.06
2023-04-02T04:31:07.476Z,62.05
2023-04-02T04:33:41.508Z,61.57
2023-04-02T04:36:37.942Z,59.73
2023-04-02T04:39:18.145Z,60.58
2023-04-02T04:41:48.707Z,59.51
2023-04-02T04:44:18.220Z,57.24
2023-04-02T04:47:10.969Z,56.53
2023-04-02T04:49:47.070Z,55.83
2023-04-02T04:52:27.051Z,55.07
2023-04-02T04:54:54.523Z,54.50
2023-04-02T04:57:36.084Z,56.80
2023-04-02T05:00:54.521Z,56.41
2023-04-02T05:03:35.936Z,58.86
2023-04-02T05:06:36.089Z,58.54
2023-04-02T05:09:38.634Z,57.97
2023-04-02T05:12:30.368Z,56.37
2023-04-02T05:15:06.831Z,57.23
2023-04-02T05:17:42.975Z,57.47
2023-04-02T05:20:26.065Z,56.38
2023-04-02T05:23:16.443Z,59.16
2023-04-02T05:26:03.104Z,58.95
2023-04-02T05:28:46.126Z,61.33
2023-04-02T05:31:22.770Z,59.36
2023-04-02T05:33:50.173Z,61.02
2023-04-02T05:36:28.077Z,60.39
2023-04-02T05:38:58.132Z,61.41
2023-04-02T05:41:48.071Z,60.06
2023-04-02T05:44:32.138Z,59.94
2023-04-02T05:47:02.416Z,62.07
2023-04-02T05:49:39.469Z,59.59
2023-04-02T05:52:13.163Z,61.67
2023-04-02T05:54:44.681Z,62.53
2023-04-02T05:57:15.210Z,60.31
2023-04-02T06:00:13.871Z,61.14
2023-04-02T06:02:55.923Z,61.53
2023-04-02T06:05:25.244Z,62.43
2023-04-02T06:08:07.364Z,64.60
2023-04-02T06:10:36.313Z,61.97
2023-04-02T06:13:07.258Z,63.37
2023-04-02T06:15:38.807Z,62.30
2023-04-02T06:18:24.783Z,63.45
2023-04-02T06:20:52.922Z,63.37
2023-04-02T06:23:23.367Z,63.64
2023-04-02T06:25:54.483Z,62.12
2023-04-02T06:28:47.152Z,60.58
2023-04-02T06:31:28.986Z,58.41
2023-04-02T06:33:56.697Z,59.97
2023-04-02T06:36:26.660Z,57.54
2023-04-02T06:38:55.861Z,60.69
2023-04-02T06:41:23.903Z,61.07
2023-04-02T06:44:28.319Z,58.57
2023-04-02T06:47:30.197Z,65.43
2023-04-02T06:50:15.325Z,64.65
2023-04-02T06:52:50.842Z,64.43
2023-04-02T06:55:46.402Z,64.54
2023-04-02T06:58:17.842Z,64.03
2023-04-02T07:00:49.001Z,63.00
2023-04-02T07:03:25.280Z,62.93
2023-04-02T07:05:54.260Z,63.13
2023-04-02T07:08:21.731Z,63.85
2023-04-02T07:10:49.634Z,63.61
2023-04-02T07:13:23.099Z,67.99
2023-04-02T07:15:52.477Z,67.58
2023-04-02T07:18:27.802Z,67.78
2023-04-02T07:20:55.682Z,67.59
2023-04-02T07:23:23.659Z,66.49
2023-04-02T07:25:51.676Z,66.56
2023-04-02T07:28:20.375Z,63.58
2023-04-02T07:30:49.587Z,62.09
2023-04-02T07:33:17.659Z,63.01
2023-04-02T07:35:44.973Z,63.32
2023-04-02T07:38:12.302Z,61.34
2023-04-02T07:40:39.501Z,60.61
2023-04-02T07:43:06.692Z,62.06
2023-04-02T07:45:34.103Z,60.75
2023-04-02T07:48:27.510Z,62.41
2023-04-02T07:50:54.688Z,62.91
2023-04-02T07:53:40.178Z,61.71
2023-04-02T07:56:07.811Z,60.17
2023-04-02T07:58:36.231Z,60.83
2023-04-02T08:01:07.214Z,61.72
2023-04-02T08:03:34.913Z,60.53
2023-04-02T08:06:03.487Z,59.54
2023-04-02T08:08:30.703Z,60.66
2023-04-02T08:10:57.805Z,59.15
2023-04-02T08:13:25.191Z,57.59
2023-04-02T08:15:52.234Z,59.85
2023-04-02T08:18:23.084Z,58.59
2023-04-02T08:20:50.492Z,57.11
2023-04-02T08:23:18.259Z,56.13
2023-04-02T08:25:46.669Z,57.54
2023-04-02T08:28:13.732Z,57.86
2023-04-02T08:30:41.167Z,57.59
2023-04-02T08:33:08.302Z,58.47
2023-04-02T08:35:35.767Z,60.24
2023-04-02T08:38:03.406Z,59.81
2023-04-02T08:40:36.228Z,58.20
2023-04-02T08:43:34.561Z,58.38
2023-04-02T08:46:14.810Z,58.86
2023-04-02T08:48:44.400Z,59.87
2023-04-02T08:51:35.562Z,61.19
2023-04-02T08:54:28.033Z,61.92
2023-04-02T08:57:16.563Z,60.27
2023-04-02T08:59:43.778Z,58.64
2023-04-02T09:02:28.517Z,58.78
2023-04-02T09:05:01.025Z,59.21
2023-04-02T09:07:37.753Z,60.09
2023-04-02T09:10:05.091Z,62.24
2023-04-02T09:12:32.641Z,62.94
2023-04-02T09:15:04.092Z,61.42
2023-04-02T09:17:36.874Z,61.17
2023-04-02T09:20:18.864Z,61.22
2023-04-02T09:22:47.102Z,61.68
2023-04-02T09:25:17.854Z,61.10
2023-04-02T09:27:47.800Z,59.65
2023-04-02T09:30:22.611Z,62.63
2023-04-02T09:32:54.032Z,63.83
2023-04-02T09:35:36.404Z,65.02
2023-04-02T09:38:10.083Z,64.83
2023-04-02T09:40:50.745Z,64.49
2023-04-02T09:43:22.606Z,64.02
2023-04-02T09:46:06.888Z,64.96
2023-04-02T09:48:39.546Z,64.34
2023-04-02T09:51:07.595Z,62.80
2023-04-02T09:53:37.096Z,62.93
2023-04-02T09:56:17.093Z,63.23
2023-04-02T09:58:45.666Z,62.82
2023-04-02T10:01:29.358Z,62.39
2023-04-02T10:03:57.045Z,60.88
2023-04-02T10:06:24.233Z,61.90
2023-04-02T10:08:51.844Z,61.33
2023-04-02T10:11:43.708Z,61.99
2023-04-02T10:14:39.318Z,63.25
2023-04-02T10:17:25.641Z,63.36
2023-04-02T10:19:55.550Z,62.49
2023-04-02T10:22:22.971Z,62.65
2023-04-02T10:24:51.433Z,63.18
2023-04-02T10:27:30.652Z,63.79
2023-04-02T10:30:13.092Z,63.72
2023-04-02T10:32:51.489Z,61.87
2023-04-02T10:35:57.173Z,62.20
2023-04-02T10:38:39.406Z,62.52
2023-04-02T10:41:09.116Z,63.18
2023-04-02T10:44:06.175Z,63.51
2023-04-02T10:46:56.070Z,63.11
2023-04-02T10:49:41.355Z,61.76
2023-04-02T10:52:21.369Z,60.04
2023-04-02T10:54:59.259Z,62.53
2023-04-02T10:57:37.337Z,62.85
2023-04-02T11:00:16.670Z,66.18
2023-04-02T11:03:08.607Z,64.67
2023-04-02T11:05:44.449Z,64.30
2023-04-02T11:08:34.387Z,63.41
2023-04-02T11:11:13.640Z,66.20
2023-04-02T11:14:09.013Z,65.55
2023-04-02T11:16:40.102Z,63.35
2023-04-02T11:19:15.963Z,62.56
2023-04-02T11:21:57.296Z,63.67
2023-04-02T11:24:34.484Z,62.20
2023-04-02T11:27:10.919Z,60.73
2023-04-02T11:29:45.458Z,63.33
2023-04-02T11:32:12.481Z,66.40
2023-04-02T11:34:43.200Z,65.40
2023-04-02T11:37:35.050Z,63.73
2023-04-02T11:40:06.653Z,65.46
2023-04-02T11:42:34.546Z,66.29
2023-04-02T11:45:23.400Z,63.94
2023-04-02T11:48:17.175Z,64.57
2023-04-02T11:50:45.788Z,66.22
2023-04-02T11:53:13.617Z,64.57
2023-04-02T11:55:44.320Z,63.72
2023-04-02T11:58:29.715Z,65.28
2023-04-02T12:01:05.641Z,64.26
2023-04-02T12:03:38.583Z,63.30
2023-04-02T12:06:07.862Z,62.53
2023-04-02T12:08:57.142Z,60.84
2023-04-02T12:11:32.860Z,60.82
2023-04-02T12:14:00.152Z,63.30
2023-04-02T12:16:31.578Z,63.75
2023-04-02T12:18:58.670Z,62.77
2023-04-02T12:21:28.140Z,60.97
2023-04-02T12:23:59.666Z,59.94
2023-04-02T12:26:32.171Z,59.45
2023-04-02T12:29:28.209Z,62.51
2023-04-02T12:31:56.933Z,64.12
2023-04-02T12:34:25.708Z,69.18
2023-04-02T12:37:01.315Z,72.44
2023-04-02T12:39:28.900Z,74.07
2023-04-02T12:41:56.488Z,73.67
2023-04-02T12:44:25.896Z,72.90
2023-04-02T12:46:52.988Z,72.95
2023-04-02T12:49:38.989Z,75.27
2023-04-02T12:52:10.917Z,75.45
2023-04-02T12:55:00.450Z,75.33
2023-04-02T12:57:27.715Z,75.36
2023-04-02T13:00:06.526Z,75.69
2023-04-02T13:02:44.859Z,75.50
2023-04-02T13:05:12.052Z,74.33
2023-04-02T13:07:39.147Z,72.95
2023-04-02T13:10:23.206Z,72.50
2023-04-02T13:12:55.323Z,73.26
2023-04-02T13:15:33.174Z,72.78
2023-04-02T13:18:28.244Z,74.17
2023-04-02T13:21:03.242Z,73.48
2023-04-02T13:23:30.383Z,73.95
2023-04-02T13:25:58.870Z,73.73
2023-04-02T13:28:26.300Z,74.00
2023-04-02T13:30:55.414Z,72.94
2023-04-02T13:33:22.559Z,72.36
2023-04-02T13:35:49.672Z,71.52
2023-04-02T13:38:16.750Z,71.49
2023-04-02T13:40:43.852Z,72.19
2023-04-02T13:43:17.109Z,72.53
2023-04-02T13:45:44.247Z,71.85
2023-04-02T13:48:14.460Z,73.24
2023-04-02T13:50:41.821Z,75.25
2023-04-02T13:53:10.645Z,76.22
2023-04-02T13:55:39.732Z,75.36
2023-04-02T13:58:06.826Z,76.06
2023-04-02T14:00:36.001Z,75.69
2023-04-02T14:03:15.279Z,74.53
2023-04-02T14:06:08.545Z,74.40
2023-04-02T14:09:16.740Z,74.74
2023-04-02T14:11:46.991Z,76.36
2023-04-02T14:14:20.096Z,75.98
2023-04-02T14:17:06.924Z,74.58
2023-04-02T14:19:52.430Z,74.75
2023-04-02T14:22:31.409Z,73.15
2023-04-02T14:25:11.310Z,73.27
2023-04-02T14:28:13.259Z,73.75
2023-04-02T14:31:00.913Z,74.38
2023-04-02T14:33:30.933Z,73.59
2023-04-02T14:36:03.949Z,72.04
2023-04-02T14:38:38.035Z,72.57
2023-04-02T14:41:08.882Z,73.60
2023-04-02T14:43:59.463Z,73.37
2023-04-02T14:46:26.904Z,71.65
2023-04-02T14:49:09.094Z,72.78
2023-04-02T14:51:58.831Z,73.23
2023-04-02T14:54:36.272Z,73.10
2023-04-02T14:57:23.172Z,73.90
2023-04-02T15:00:26.266Z,71.97
2023-04-02T15:02:57.831Z,73.43
2023-04-02T15:05:34.662Z,73.96
2023-04-02T15:08:27.403Z,73.10
2023-04-02T15:11:19.613Z,71.42
2023-04-02T15:13:55.717Z,72.89
2023-04-02T15:16:25.673Z,72.04
2023-04-02T15:18:53.621Z,71.04
2023-04-02T15:21:20.523Z,70.53
2023-04-02T15:24:02.561Z,70.64
2023-04-02T15:26:47.983Z,70.34
2023-04-02T15:29:42.874Z,71.08
2023-04-02T15:32:35.064Z,72.27
2023-04-02T15:35:24.200Z,72.49
2023-04-02T15:38:10.103Z,73.03
2023-04-02T15:40:59.414Z,71.91
2023-04-02T15:43:48.671Z,72.02
2023-04-02T15:46:23.173Z,72.27
2023-04-02T15:49:43.014Z,72.58
2023-04-02T15:52:11.652Z,71.95
2023-04-02T15:54:45.011Z,70.86
2023-04-02T15:57:32.593Z,71.69
2023-04-02T16:00:18.118Z,72.30
2023-04-02T16:02:54.146Z,72.35
2023-04-02T16:05:54.945Z,72.60
2023-04-02T16:08:46.145Z,72.94
2023-04-02T16:11:14.259Z,73.57
2023-04-02T16:13:41.966Z,74.23
2023-04-02T16:16:15.597Z,72.69
2023-04-02T16:19:02.838Z,72.41
2023-04-02T16:21:37.538Z,71.95
2023-04-02T16:24:13.741Z,72.04
2023-04-02T16:26:54.466Z,71.45
2023-04-02T16:29:55.593Z,71.48
2023-04-02T16:32:32.087Z,70.46
2023-04-02T16:35:32.553Z,70.66
2023-04-02T16:38:16.267Z,70.31
2023-04-02T16:41:07.529Z,70.42
2023-04-02T16:43:58.365Z,70.85
2023-04-02T16:46:46.560Z,70.88
2023-04-02T16:49:17.087Z,71.31
2023-04-02T16:52:12.989Z,71.29
2023-04-02T16:54:41.399Z,70.87
2023-04-02T16:57:32.862Z,70.25
2023-04-02T17:00:21.491Z,70.05
2023-04-02T17:02:54.761Z,69.71
2023-04-02T17:05:43.120Z,69.90
2023-04-02T17:08:12.749Z,69.84
2023-04-02T17:10:57.670Z,69.95
2023-04-02T17:13:33.981Z,70.90
2023-04-02T17:16:05.218Z,71.11
2023-04-02T17:18:32.913Z,71.80
2023-04-02T17:21:04.293Z,69.60
2023-04-02T17:23:31.501Z,69.98
2023-04-02T17:26:04.270Z,69.96
2023-04-02T17:28:37.945Z,68.20
2023-04-02T17:31:23.294Z,68.48
2023-04-02T17:33:50.485Z,68.38
2023-04-02T17:36:17.442Z,67.81
2023-04-02T17:39:06.968Z,67.85
2023-04-02T17:41:49.484Z,66.71
2023-04-02T17:44:56.933Z,66.66
2023-04-02T17:47:30.117Z,65.69
2023-04-02T17:50:09.887Z,64.62
2023-04-02T17:52:43.986Z,66.73
2023-04-02T17:55:17.454Z,66.26
2023-04-02T17:58:21.970Z,65.51
2023-04-02T18:01:04.237Z,63.31
2023-04-02T18:03:40.975Z,64.91
2023-04-02T18:06:32.713Z,65.88
2023-04-02T18:09:09.769Z,65.56
2023-04-02T18:11:37.129Z,65.09
2023-04-02T18:14:40.003Z,65.51
2023-04-02T18:17:38.672Z,65.87
2023-04-02T18:20:21.626Z,64.84
2023-04-02T18:23:20.121Z,66.27
2023-04-02T18:26:04.098Z,66.48
2023-04-02T18:28:41.008Z,64.48
2023-04-02T18:31:12.498Z,64.52
2023-04-02T18:33:51.823Z,62.61
2023-04-02T18:36:40.555Z,61.08
2023-04-02T18:39:23.055Z,61.26
2023-04-02T18:42:31.390Z,62.31
2023-04-02T18:45:33.277Z,63.70
2023-04-02T18:48:13.989Z,61.89
2023-04-02T18:50:46.051Z,62.63
2023-04-02T18:53:17.447Z,60.83
2023-04-02T18:56:17.169Z,61.53
2023-04-02T18:59:15.018Z,61.25
2023-04-02T19:01:44.646Z,62.34
2023-04-02T19:04:20.766Z,62.82
2023-04-02T19:07:02.672Z,63.14
2023-04-02T19:09:35.194Z,64.11
2023-04-02T19:12:07.093Z,64.08
2023-04-02T19:14:34.660Z,64.23
2023-04-02T19:17:05.509Z,63.17
2023-04-02T19:19:54.353Z,62.10
2023-04-02T19:22:38.769Z,62.14
2023-04-02T19:25:21.321Z,62.24
2023-04-02T19:27:58.510Z,63.30
2023-04-02T19:30:51.115Z,64.01
2023-04-02T19:33:42.818Z,63.42
2023-04-02T19:37:03.441Z,63.22
2023-04-02T19:39:36.439Z,61.66
2023-04-02T19:42:10.528Z,61.09
2023-04-02T19:44:39.674Z,61.23
2023-04-02T19:47:08.476Z,61.36
2023-04-02T19:49:35.662Z,60.88
2023-04-02T19:52:02.741Z,62.81
2023-04-02T19:54:30.524Z,62.84
2023-04-02T19:56:57.550Z,62.78
2023-04-02T19:59:24.858Z,62.41
2023-04-02T20:01:52.059Z,62.53
2023-04-02T20:04:19.238Z,61.12
2023-04-02T20:06:46.340Z,62.11
2023-04-02T20:09:13.427Z,61.46
2023-04-02T20:11:40.432Z,61.27
2023-04-02T20:14:08.147Z,62.48
2023-04-02T20:16:39.739Z,62.35
2023-04-02T20:19:06.886Z,62.80
2023-04-02T20:21:38.255Z,63.26
2023-04-02T20:24:06.949Z,62.59
2023-04-02T20:26:35.117Z,62.32
2023-04-02T20:29:02.151Z,64.12
2023-04-02T20:31:30.804Z,62.44
2023-04-02T20:33:58.377Z,62.75
2023-04-02T20:36:25.641Z,62.54
2023-04-02T20:38:52.666Z,62.08
2023-04-02T20:41:19.844Z,62.32
2023-04-02T20:43:46.836Z,63.13
2023-04-02T20:46:14.268Z,62.93
2023-04-02T20:48:41.322Z,63.05
2023-04-02T20:51:09.492Z,63.88
2023-04-02T20:53:37.042Z,61.83
2023-04-02T20:56:08.722Z,62.94
2023-04-02T20:58:36.217Z,62.48
2023-04-02T21:01:23.330Z,63.70
2023-04-02T21:03:53.757Z,63.52
2023-04-02T21:06:21.758Z,63.34
2023-04-02T21:08:49.205Z,63.38
2023-04-02T21:11:16.522Z,63.09
2023-04-02T21:13:44.405Z,64.05
2023-04-02T21:16:19.558Z,63.32
2023-04-02T21:18:46.836Z,63.44
2023-04-02T21:21:14.251Z,62.70
2023-04-02T21:23:42.053Z,62.22
2023-04-02T21:26:14.850Z,62.42
2023-04-02T21:28:42.046Z,63.06
2023-04-02T21:31:14.082Z,62.23
2023-04-02T21:33:43.458Z,61.74
2023-04-02T21:36:15.390Z,63.19
2023-04-02T21:38:48.833Z,62.59
2023-04-02T21:41:23.709Z,61.95
2023-04-02T21:43:50.974Z,61.76
2023-04-02T21:46:19.489Z,60.63
2023-04-02T21:48:47.780Z,60.97
2023-04-02T21:51:19.475Z,61.69
2023-04-02T21:53:46.433Z,60.70
2023-04-02T21:56:15.882Z,58.81
2023-04-02T21:58:46.220Z,60.04
2023-04-02T22:01:23.855Z,60.12
2023-04-02T22:03:57.144Z,60.86
2023-04-02T22:06:24.856Z,59.99
2023-04-02T22:08:53.587Z,61.63
2023-04-02T22:11:22.522Z,62.04
2023-04-02T22:13:49.825Z,62.68
2023-04-02T22:16:22.379Z,61.65
2023-04-02T22:18:49.904Z,61.60
2023-04-02T22:21:17.147Z,61.47
2023-04-02T22:23:44.314Z,61.48
2023-04-02T22:26:11.971Z,60.06
2023-04-02T22:28:39.089Z,59.52
2023-04-02T22:31:16.397Z,60.07
2023-04-02T22:33:44.250Z,60.19
2023-04-02T22:36:11.517Z,60.76
2023-04-02T22:38:38.641Z,60.06
2023-04-02T22:41:06.919Z,57.89
2023-04-02T22:43:34.335Z,58.43
2023-04-02T22:46:01.690Z,59.52
2023-04-02T22:48:28.717Z,57.92
2023-04-02T22:50:55.776Z,58.24
2023-04-02T22:53:22.966Z,59.17
2023-04-02T22:55:50.163Z,59.44
2023-04-02T22:58:17.542Z,58.32
2023-04-02T23:00:44.649Z,59.53
2023-04-02T23:03:11.794Z,58.98
2023-04-02T23:05:38.906Z,58.71
2023-04-02T23:08:06.283Z,57.78
2023-04-02T23:10:33.347Z,57.65
2023-04-02T23:13:00.407Z,57.02
2023-04-02T23:15:27.357Z,55.93
2023-04-02T23:17:54.499Z,55.72
2023-04-02T23:20:21.550Z,54.07
2023-04-02T23:22:48.537Z,53.67
2023-04-02T23:25:15.950Z,54.11
2023-04-02T23:27:42.949Z,55.39
2023-04-02T23:30:10.134Z,56.42
2023-04-02T23:32:37.220Z,55.20
2023-04-02T23:35:06.444Z,55.38
2023-04-02T23:37:33.436Z,54.03
2023-04-02T23:40:00.417Z,52.35
2023-04-02T23:42:28.434Z,51.78
2023-04-02T23:44:55.581Z,50.91
2023-04-02T23:47:22.760Z,49.78
2023-04-02T23:49:49.693Z,50.74
2023-04-02T23:52:18.009Z,48.87
2023-04-02T23:54:45.161Z,48.62
2023-04-02T23:57:12.224Z,50.71
2023-04-02T23:59:40.341Z,50.69
